createdAt,value
2018-07-15T00:00:14.416Z,3.90
2018-07-15T00:01:14.401Z,3.70
2018-07-15T00:02:14.386Z,3.90
2018-07-15T00:03:14.467Z,3.80
2018-07-15T00:04:14.369Z,4.10
2018-07-15T00:05:14.348Z,3.90
2018-07-15T00:06:14.337Z,3.70
2018-07-15T00:07:14.327Z,4.50
2018-07-15T00:08:14.305Z,4.00
2018-07-15T00:09:14.294Z,3.80
2018-07-15T00:10:14.286Z,4.00
2018-07-15T00:11:14.265Z,4.00
2018-07-15T00:12:14.258Z,4.00
2018-07-15T00:13:14.243Z,3.90
2018-07-15T00:14:14.229Z,4.00
2018-07-15T00:15:14.222Z,3.70
2018-07-15T00:16:14.206Z,4.20
2018-07-15T00:17:14.189Z,4.10
2018-07-15T00:18:14.176Z,4.40
2018-07-15T00:19:14.162Z,4.00
2018-07-15T00:20:14.148Z,4.00
2018-07-15T00:21:14.129Z,3.80
2018-07-15T00:22:14.216Z,4.50
2018-07-15T00:23:14.106Z,4.30
2018-07-15T00:24:14.089Z,4.50
2018-07-15T00:25:14.076Z,4.40
2018-07-15T00:26:14.062Z,3.80
2018-07-15T00:27:14.048Z,4.50
2018-07-15T00:28:14.034Z,4.40
2018-07-15T00:29:14.028Z,4.60
2018-07-15T00:30:14.014Z,3.90
2018-07-15T00:31:13.997Z,4.20
2018-07-15T00:32:13.981Z,4.10
2018-07-15T00:33:13.965Z,4.30
2018-07-15T00:34:13.960Z,4.50
2018-07-15T00:35:13.941Z,3.80
2018-07-15T00:36:13.924Z,4.70
2018-07-15T00:37:13.915Z,4.70
2018-07-15T00:38:13.903Z,4.30
2018-07-15T00:39:13.888Z,4.60
2018-07-15T00:40:13.887Z,5.00
2018-07-15T00:41:13.871Z,4.30
2018-07-15T00:42:13.847Z,4.40
2018-07-15T00:43:13.833Z,4.80
2018-07-15T00:44:13.824Z,4.40
2018-07-15T00:45:13.807Z,4.70
2018-07-15T00:46:13.800Z,4.40
2018-07-15T00:47:13.780Z,3.70
2018-07-15T00:48:13.763Z,4.60
2018-07-15T00:49:13.786Z,4.60
2018-07-15T00:50:13.737Z,4.20
2018-07-15T00:51:13.727Z,4.10
2018-07-15T00:52:13.716Z,3.90
2018-07-15T00:53:13.695Z,4.30
2018-07-15T00:54:13.679Z,4.00
2018-07-15T00:55:13.729Z,4.70
2018-07-15T00:56:13.654Z,4.40
2018-07-15T00:57:13.640Z,4.10
2018-07-15T00:58:13.625Z,4.40
2018-07-15T00:59:13.617Z,4.80
2018-07-15T01:00:13.612Z,4.20
2018-07-15T01:01:13.586Z,4.10
2018-07-15T01:02:13.572Z,4.10
2018-07-15T01:03:13.557Z,4.20
2018-07-15T01:04:13.546Z,4.50
2018-07-15T01:05:13.536Z,4.30
2018-07-15T01:06:13.523Z,4.30
2018-07-15T01:07:13.516Z,3.80
2018-07-15T01:08:13.491Z,4.30
2018-07-15T01:09:13.474Z,4.20
2018-07-15T01:10:13.464Z,4.10
2018-07-15T01:11:13.450Z,4.10
2018-07-15T01:12:13.436Z,4.20
2018-07-15T01:13:13.419Z,4.40
2018-07-15T01:14:13.416Z,4.80
2018-07-15T01:15:13.392Z,4.00
2018-07-15T01:16:13.380Z,4.00
2018-07-15T01:17:13.371Z,4.60
2018-07-15T01:18:13.348Z,4.50
2018-07-15T01:19:13.336Z,5.10
2018-07-15T01:20:13.324Z,4.60
2018-07-15T01:21:13.309Z,4.90
2018-07-15T01:22:13.311Z,4.50
2018-07-15T01:23:13.286Z,4.90
2018-07-15T01:24:13.270Z,4.90
2018-07-15T01:25:13.254Z,4.50
2018-07-15T01:26:13.238Z,5.00
2018-07-15T01:27:13.230Z,4.80
2018-07-15T01:28:13.215Z,5.20
2018-07-15T01:29:13.286Z,5.50
2018-07-15T01:30:13.184Z,5.00
2018-07-15T01:31:13.167Z,5.00
2018-07-15T01:32:13.210Z,4.90
2018-07-15T01:33:13.140Z,4.80
2018-07-15T01:34:13.127Z,5.40
2018-07-15T01:35:13.117Z,5.00
2018-07-15T01:36:13.104Z,4.90
2018-07-15T01:37:13.087Z,5.10
2018-07-15T01:38:13.072Z,5.10
2018-07-15T01:39:13.056Z,4.90
2018-07-15T01:40:13.051Z,4.40
2018-07-15T01:41:13.033Z,4.60
2018-07-15T01:42:13.019Z,4.30
2018-07-15T01:43:13.000Z,4.70
2018-07-15T01:44:12.988Z,4.30
2018-07-15T01:45:12.975Z,4.40
2018-07-15T01:46:12.963Z,5.20
2018-07-15T01:47:12.942Z,4.40
2018-07-15T01:48:13.010Z,4.40
2018-07-15T01:49:12.919Z,4.40
2018-07-15T01:50:12.906Z,4.60
2018-07-15T01:51:12.890Z,4.10
2018-07-15T01:52:12.882Z,4.50
2018-07-15T01:53:12.872Z,4.50
2018-07-15T01:54:12.846Z,4.70
2018-07-15T01:55:12.834Z,4.00
2018-07-15T01:56:12.819Z,4.30
2018-07-15T01:57:12.803Z,4.20
2018-07-15T01:58:12.789Z,4.10
2018-07-15T01:59:12.779Z,4.30
2018-07-15T02:00:12.762Z,4.20
2018-07-15T02:01:12.746Z,4.80
2018-07-15T02:02:12.731Z,4.20
2018-07-15T02:03:12.727Z,4.60
2018-07-15T02:04:12.804Z,4.30
2018-07-15T02:05:12.695Z,4.10
2018-07-15T02:06:12.677Z,4.60
2018-07-15T02:07:12.666Z,5.20
2018-07-15T02:08:12.652Z,4.90
2018-07-15T02:09:12.632Z,4.70
2018-07-15T02:10:12.645Z,4.70
2018-07-15T02:11:12.612Z,4.20
2018-07-15T02:12:12.597Z,5.00
2018-07-15T02:13:12.576Z,5.10
2018-07-15T02:14:12.562Z,5.10
2018-07-15T02:15:12.596Z,4.20
2018-07-15T02:16:12.536Z,4.10
2018-07-15T02:17:12.528Z,4.70
2018-07-15T02:18:12.506Z,4.30
2018-07-15T02:19:12.497Z,4.60
2018-07-15T02:20:12.488Z,4.50
2018-07-15T02:21:12.460Z,4.50
2018-07-15T02:22:12.454Z,4.40
2018-07-15T02:23:12.435Z,4.30
2018-07-15T02:24:12.420Z,4.90
2018-07-15T02:25:12.406Z,4.50
2018-07-15T02:26:12.390Z,5.00
2018-07-15T02:27:12.390Z,5.10
2018-07-15T02:28:12.369Z,5.20
2018-07-15T02:29:12.347Z,5.20
2018-07-15T02:30:12.336Z,4.80
2018-07-15T02:31:12.329Z,5.70
2018-07-15T02:32:12.309Z,5.30
2018-07-15T02:33:12.287Z,5.90
2018-07-15T02:34:12.293Z,5.40
2018-07-15T02:35:12.264Z,5.50
2018-07-15T02:36:12.249Z,5.60
2018-07-15T02:37:12.240Z,5.60
2018-07-15T02:38:12.218Z,5.40
2018-07-15T02:39:12.206Z,5.30
2018-07-15T02:40:12.191Z,5.60
2018-07-15T02:41:12.175Z,5.20
2018-07-15T02:42:12.161Z,5.40
2018-07-15T02:43:12.146Z,5.40
2018-07-15T02:44:12.134Z,5.50
2018-07-15T02:45:12.126Z,6.20
2018-07-15T02:46:12.105Z,5.00
2018-07-15T02:47:12.126Z,6.00
2018-07-15T02:48:12.073Z,5.60
2018-07-15T02:49:12.065Z,6.10
2018-07-15T02:50:12.098Z,5.90
2018-07-15T02:51:12.031Z,6.20
2018-07-15T02:52:12.021Z,6.30
2018-07-15T02:53:12.053Z,6.50
2018-07-15T02:54:11.986Z,5.80
2018-07-15T02:55:12.012Z,6.00
2018-07-15T02:56:11.965Z,6.00
2018-07-15T02:57:11.947Z,5.70
2018-07-15T02:58:11.932Z,6.10
2018-07-15T02:59:11.917Z,5.90
2018-07-15T03:00:11.901Z,6.20
2018-07-15T03:01:11.888Z,6.60
2018-07-15T03:02:11.880Z,6.10
2018-07-15T03:03:11.861Z,5.90
2018-07-15T03:04:11.845Z,6.40
2018-07-15T03:05:11.828Z,6.20
2018-07-15T03:06:11.813Z,5.70
2018-07-15T03:07:11.808Z,6.00
2018-07-15T03:08:11.788Z,6.20
2018-07-15T03:09:11.771Z,6.40
2018-07-15T03:10:11.757Z,5.90
2018-07-15T03:11:11.745Z,5.70
2018-07-15T03:12:11.735Z,5.40
2018-07-15T03:13:11.710Z,5.60
2018-07-15T03:14:11.701Z,5.80
2018-07-15T03:15:11.687Z,6.30
2018-07-15T03:16:11.665Z,6.20
2018-07-15T03:17:11.657Z,5.70
2018-07-15T03:18:11.637Z,5.80
2018-07-15T03:19:11.623Z,5.80
2018-07-15T03:20:11.616Z,6.10
2018-07-15T03:21:11.595Z,5.90
2018-07-15T03:22:11.579Z,6.00
2018-07-15T03:23:11.568Z,6.40
2018-07-15T03:24:11.551Z,6.00
2018-07-15T03:25:11.542Z,6.20
2018-07-15T03:26:11.526Z,6.60
2018-07-15T03:27:11.513Z,6.30
2018-07-15T03:28:11.498Z,6.30
2018-07-15T03:29:11.482Z,6.70
2018-07-15T03:30:11.469Z,6.60
2018-07-15T03:31:11.457Z,6.00
2018-07-15T03:32:11.437Z,6.80
2018-07-15T03:33:11.576Z,5.80
2018-07-15T03:34:11.580Z,6.40
2018-07-15T03:35:11.395Z,5.70
2018-07-15T03:36:11.379Z,6.70
2018-07-15T03:37:11.364Z,5.70
2018-07-15T03:38:11.359Z,6.40
2018-07-15T03:39:11.337Z,6.00
2018-07-15T03:40:11.319Z,5.30
2018-07-15T03:41:11.306Z,6.30
2018-07-15T03:42:11.291Z,6.20
2018-07-15T03:43:11.275Z,6.10
2018-07-15T03:44:11.263Z,6.30
2018-07-15T03:45:11.246Z,5.80
2018-07-15T03:46:11.230Z,6.90
2018-07-15T03:47:11.215Z,6.20
2018-07-15T03:48:11.209Z,6.60
2018-07-15T03:49:11.190Z,5.80
2018-07-15T03:50:11.171Z,6.50
2018-07-15T03:51:11.161Z,5.80
2018-07-15T03:52:11.144Z,5.90
2018-07-15T03:53:11.130Z,5.80
2018-07-15T03:54:11.116Z,6.00
2018-07-15T03:55:11.100Z,6.30
2018-07-15T03:56:11.086Z,6.00
2018-07-15T03:57:11.176Z,6.20
2018-07-15T03:58:11.058Z,5.80
2018-07-15T03:59:11.051Z,6.30
2018-07-15T04:00:11.126Z,6.40
2018-07-15T04:01:11.013Z,6.30
2018-07-15T04:02:10.998Z,6.40
2018-07-15T04:03:10.983Z,6.10
2018-07-15T04:04:10.977Z,6.10
2018-07-15T04:05:10.955Z,6.00
2018-07-15T04:06:10.945Z,5.80
2018-07-15T04:07:10.927Z,5.80
2018-07-15T04:08:10.910Z,6.20
2018-07-15T04:09:10.899Z,6.40
2018-07-15T04:10:10.879Z,6.30
2018-07-15T04:11:10.866Z,5.70
2018-07-15T04:12:10.852Z,6.30
2018-07-15T04:13:10.836Z,6.20
2018-07-15T04:14:10.823Z,6.20
2018-07-15T04:15:10.807Z,6.40
2018-07-15T04:16:10.943Z,5.80
2018-07-15T04:17:10.778Z,5.70
2018-07-15T04:18:10.770Z,5.70
2018-07-15T04:19:10.747Z,6.40
2018-07-15T04:20:10.744Z,6.20
2018-07-15T04:21:10.715Z,6.20
2018-07-15T04:22:10.704Z,6.00
2018-07-15T04:23:10.689Z,6.40
2018-07-15T04:24:10.676Z,6.00
2018-07-15T04:25:10.656Z,5.80
2018-07-15T04:26:10.645Z,5.60
2018-07-15T04:27:10.628Z,5.70
2018-07-15T04:28:10.635Z,6.70
2018-07-15T04:29:10.602Z,6.50
2018-07-15T04:30:10.586Z,6.10
2018-07-15T04:31:10.571Z,5.60
2018-07-15T04:32:10.556Z,6.00
2018-07-15T04:33:10.541Z,5.70
2018-07-15T04:34:10.525Z,6.20
2018-07-15T04:35:10.516Z,5.90
2018-07-15T04:36:10.497Z,5.80
2018-07-15T04:37:10.483Z,5.90
2018-07-15T04:38:10.466Z,6.20
2018-07-15T04:39:10.451Z,5.50
2018-07-15T04:40:10.439Z,6.70
2018-07-15T04:41:10.419Z,5.50
2018-07-15T04:42:10.407Z,6.10
2018-07-15T04:43:10.442Z,5.80
2018-07-15T04:44:10.376Z,6.60
2018-07-15T04:45:10.364Z,5.50
2018-07-15T04:46:10.346Z,5.60
2018-07-15T04:47:10.336Z,5.80
2018-07-15T04:48:10.317Z,6.10
2018-07-15T04:49:10.301Z,5.80
2018-07-15T04:50:10.290Z,5.50
2018-07-15T04:51:10.275Z,6.00
2018-07-15T04:52:10.260Z,5.90
2018-07-15T04:53:10.245Z,5.40
2018-07-15T04:54:10.225Z,5.40
2018-07-15T04:55:10.214Z,5.50
2018-07-15T04:56:10.197Z,6.20
2018-07-15T04:57:10.182Z,5.60
2018-07-15T04:58:10.166Z,6.20
2018-07-15T04:59:10.226Z,6.10
2018-07-15T05:00:10.139Z,5.50
2018-07-15T05:01:10.127Z,5.60
2018-07-15T05:02:10.158Z,5.50
2018-07-15T05:03:10.093Z,5.80
2018-07-15T05:04:10.078Z,5.90
2018-07-15T05:05:10.065Z,5.50
2018-07-15T05:06:10.047Z,5.80
2018-07-15T05:07:10.036Z,5.40
2018-07-15T05:08:10.024Z,5.20
2018-07-15T05:09:10.007Z,5.30
2018-07-15T05:10:09.991Z,5.60
2018-07-15T05:11:09.993Z,5.70
2018-07-15T05:12:09.959Z,5.50
2018-07-15T05:13:09.948Z,5.60
2018-07-15T05:14:09.937Z,5.90
2018-07-15T05:15:09.915Z,5.50
2018-07-15T05:16:09.905Z,5.70
2018-07-15T05:17:09.886Z,5.70
2018-07-15T05:18:09.873Z,5.40
2018-07-15T05:19:09.856Z,5.50
2018-07-15T05:20:09.841Z,5.70
2018-07-15T05:21:09.873Z,6.00
2018-07-15T05:22:09.812Z,5.40
2018-07-15T05:23:09.801Z,5.70
2018-07-15T05:24:09.781Z,5.80
2018-07-15T05:25:09.770Z,5.90
2018-07-15T05:26:09.753Z,5.40
2018-07-15T05:27:09.736Z,5.80
2018-07-15T05:28:09.736Z,5.50
2018-07-15T05:29:09.708Z,5.90
2018-07-15T05:30:09.692Z,5.70
2018-07-15T05:31:09.677Z,5.60
2018-07-15T05:32:09.667Z,5.40
2018-07-15T05:33:09.654Z,5.60
2018-07-15T05:34:09.638Z,6.30
2018-07-15T05:35:09.627Z,6.30
2018-07-15T05:36:09.708Z,6.20
2018-07-15T05:37:09.591Z,5.90
2018-07-15T05:38:09.577Z,5.40
2018-07-15T05:39:09.561Z,5.80
2018-07-15T05:40:09.547Z,5.90
2018-07-15T05:41:09.533Z,5.60
2018-07-15T05:42:09.512Z,6.00
2018-07-15T05:43:09.503Z,5.60
2018-07-15T05:44:09.493Z,5.70
2018-07-15T05:45:09.635Z,6.10
2018-07-15T05:46:09.455Z,6.50
2018-07-15T05:47:09.441Z,5.60
2018-07-15T05:48:09.444Z,5.20
2018-07-15T05:49:09.412Z,6.30
2018-07-15T05:50:09.394Z,5.80
2018-07-15T05:51:09.383Z,6.00
2018-07-15T05:52:09.367Z,5.40
2018-07-15T05:53:09.352Z,6.20
2018-07-15T05:54:09.335Z,5.90
2018-07-15T05:55:09.319Z,6.00
2018-07-15T05:56:09.305Z,5.50
2018-07-15T05:57:09.297Z,5.60
2018-07-15T05:58:09.279Z,6.00
2018-07-15T05:59:09.263Z,5.40
2018-07-15T06:00:09.245Z,6.20
2018-07-15T06:01:09.237Z,5.60
2018-07-15T06:02:09.215Z,5.10
2018-07-15T06:03:09.205Z,5.50
2018-07-15T06:04:09.237Z,5.00
2018-07-15T06:05:09.174Z,5.60
2018-07-15T06:06:09.165Z,5.20
2018-07-15T06:07:09.143Z,5.30
2018-07-15T06:08:09.128Z,5.40
2018-07-15T06:09:09.113Z,5.20
2018-07-15T06:10:09.098Z,5.50
2018-07-15T06:11:09.087Z,5.60
2018-07-15T06:12:09.073Z,5.00
2018-07-15T06:13:09.055Z,5.20
2018-07-15T06:14:09.049Z,5.80
2018-07-15T06:15:09.031Z,6.10
2018-07-15T06:16:09.010Z,5.30
2018-07-15T06:17:09.035Z,5.20
2018-07-15T06:18:08.979Z,5.10
2018-07-15T06:19:08.978Z,5.20
2018-07-15T06:20:09.004Z,5.10
2018-07-15T06:21:08.935Z,5.40
2018-07-15T06:22:08.927Z,5.20
2018-07-15T06:23:08.911Z,5.10
2018-07-15T06:24:08.896Z,5.20
2018-07-15T06:25:09.011Z,5.50
2018-07-15T06:26:08.861Z,5.40
2018-07-15T06:27:08.850Z,5.20
2018-07-15T06:28:08.887Z,5.00
2018-07-15T06:29:08.829Z,4.90
2018-07-15T06:30:08.804Z,4.80
2018-07-15T06:31:08.793Z,5.10
2018-07-15T06:32:08.776Z,5.30
2018-07-15T06:33:08.764Z,5.20
2018-07-15T06:34:08.748Z,4.80
2018-07-15T06:35:08.732Z,5.00
2018-07-15T06:36:08.720Z,4.80
2018-07-15T06:37:08.705Z,5.80
2018-07-15T06:38:08.694Z,5.00
2018-07-15T06:39:08.681Z,5.70
2018-07-15T06:40:08.660Z,4.80
2018-07-15T06:41:08.644Z,5.00
2018-07-15T06:42:08.630Z,4.20
2018-07-15T06:43:08.615Z,4.90
2018-07-15T06:44:08.606Z,5.50
2018-07-15T06:45:08.586Z,4.80
2018-07-15T06:46:08.582Z,4.50
2018-07-15T06:47:08.567Z,4.90
2018-07-15T06:48:08.544Z,4.90
2018-07-15T06:49:08.603Z,5.20
2018-07-15T06:50:08.516Z,4.60
2018-07-15T06:51:08.503Z,4.90
2018-07-15T06:52:08.497Z,4.30
2018-07-15T06:53:08.472Z,4.30
2018-07-15T06:54:08.459Z,4.70
2018-07-15T06:55:08.446Z,4.60
2018-07-15T06:56:08.430Z,4.80
2018-07-15T06:57:08.418Z,4.00
2018-07-15T06:58:08.404Z,4.30
2018-07-15T06:59:08.388Z,3.60
2018-07-15T07:00:08.376Z,4.00
2018-07-15T07:01:08.362Z,3.80
2018-07-15T07:02:08.346Z,4.40
2018-07-15T07:03:08.484Z,3.90
2018-07-15T07:04:08.321Z,3.50
2018-07-15T07:05:08.301Z,4.00
2018-07-15T07:06:08.286Z,3.80
2018-07-15T07:07:08.286Z,4.00
2018-07-15T07:08:08.269Z,3.70
2018-07-15T07:09:08.248Z,3.60
2018-07-15T07:10:08.234Z,3.80
2018-07-15T07:11:08.217Z,4.00
2018-07-15T07:12:08.203Z,3.50
2018-07-15T07:13:08.197Z,3.60
2018-07-15T07:14:08.247Z,3.60
2018-07-15T07:15:08.163Z,3.40
2018-07-15T07:16:08.148Z,3.60
2018-07-15T07:17:08.132Z,3.20
2018-07-15T07:18:08.123Z,3.40
2018-07-15T07:19:08.106Z,3.40
2018-07-15T07:20:08.092Z,3.50
2018-07-15T07:21:08.077Z,3.00
2018-07-15T07:22:08.069Z,3.30
2018-07-15T07:23:08.052Z,3.40
2018-07-15T07:24:08.037Z,3.50
2018-07-15T07:25:08.021Z,3.20
2018-07-15T07:26:08.006Z,3.40
2018-07-15T07:27:07.995Z,2.90
2018-07-15T07:28:07.985Z,3.40
2018-07-15T07:29:07.976Z,3.20
2018-07-15T07:30:08.006Z,3.30
2018-07-15T07:31:07.940Z,3.10
2018-07-15T07:32:07.926Z,3.30
2018-07-15T07:33:07.914Z,3.50
2018-07-15T07:34:07.899Z,3.80
2018-07-15T07:35:07.889Z,3.70
2018-07-15T07:36:07.870Z,3.20
2018-07-15T07:37:07.854Z,3.10
2018-07-15T07:38:07.845Z,3.90
2018-07-15T07:39:07.837Z,3.70
2018-07-15T07:40:07.815Z,3.10
2018-07-15T07:41:07.815Z,3.60
2018-07-15T07:42:07.787Z,3.40
2018-07-15T07:43:07.773Z,3.60
2018-07-15T07:44:07.765Z,3.70
2018-07-15T07:45:07.756Z,3.60
2018-07-15T07:46:07.886Z,3.70
2018-07-15T07:47:07.721Z,4.20
2018-07-15T07:48:07.705Z,3.70
2018-07-15T07:49:07.694Z,3.10
2018-07-15T07:50:07.680Z,3.70
2018-07-15T07:51:07.666Z,3.80
2018-07-15T07:52:07.655Z,3.70
2018-07-15T07:53:07.689Z,3.30
2018-07-15T07:54:07.625Z,3.00
2018-07-15T07:55:07.649Z,3.40
2018-07-15T07:56:07.596Z,3.30
2018-07-15T07:57:07.582Z,3.20
2018-07-15T07:58:07.570Z,3.20
2018-07-15T07:59:07.558Z,3.20
2018-07-15T08:00:07.546Z,3.30
2018-07-15T08:01:07.531Z,3.30
2018-07-15T08:02:07.515Z,3.20
2018-07-15T08:03:07.505Z,2.90
2018-07-15T08:04:07.491Z,3.10
2018-07-15T08:05:07.483Z,3.10
2018-07-15T08:06:07.466Z,3.20
2018-07-15T08:07:07.450Z,3.30
2018-07-15T08:08:07.442Z,3.30
2018-07-15T08:09:07.423Z,3.50
2018-07-15T08:10:07.481Z,3.50
2018-07-15T08:11:07.409Z,2.80
2018-07-15T08:12:07.386Z,3.00
2018-07-15T08:13:07.426Z,2.30
2018-07-15T08:14:07.361Z,2.30
2018-07-15T08:15:07.350Z,2.10
2018-07-15T08:16:07.334Z,2.40
2018-07-15T08:17:07.320Z,2.30
2018-07-15T08:18:07.315Z,2.50
2018-07-15T08:19:07.297Z,2.20
2018-07-15T08:20:07.288Z,2.60
2018-07-15T08:21:07.270Z,2.30
2018-07-15T08:22:07.257Z,2.30
2018-07-15T08:23:07.254Z,2.30
2018-07-15T08:24:07.236Z,2.80
2018-07-15T08:25:07.222Z,2.60
2018-07-15T08:26:07.281Z,2.20
2018-07-15T08:27:07.196Z,2.10
2018-07-15T08:28:07.238Z,1.80
2018-07-15T08:29:07.175Z,2.30
2018-07-15T08:30:07.164Z,2.30
2018-07-15T08:31:07.157Z,2.10
2018-07-15T08:32:07.144Z,2.40
2018-07-15T08:33:07.117Z,2.20
2018-07-15T08:34:07.104Z,2.00
2018-07-15T08:35:07.093Z,2.10
2018-07-15T08:36:07.088Z,1.90
2018-07-15T08:37:07.072Z,2.00
2018-07-15T08:38:07.056Z,2.10
2018-07-15T08:39:07.055Z,1.80
2018-07-15T08:40:07.032Z,1.50
2018-07-15T08:41:07.019Z,1.40
2018-07-15T08:42:07.015Z,1.70
2018-07-15T08:43:06.997Z,2.00
2018-07-15T08:44:06.986Z,2.00
2018-07-15T08:45:07.125Z,1.90
2018-07-15T08:46:07.083Z,1.70
2018-07-15T08:47:06.958Z,1.30
2018-07-15T08:48:06.929Z,1.90
2018-07-15T08:49:06.928Z,1.80
2018-07-15T08:50:06.907Z,1.80
2018-07-15T08:51:06.897Z,2.10
2018-07-15T08:52:06.883Z,1.70
2018-07-15T08:53:06.880Z,1.40
2018-07-15T08:54:06.857Z,1.40
2018-07-15T08:55:06.842Z,1.50
2018-07-15T08:56:06.834Z,1.30
2018-07-15T08:57:06.821Z,1.80
2018-07-15T08:58:06.807Z,1.50
2018-07-15T08:59:06.794Z,1.40
2018-07-15T09:00:06.797Z,1.20
2018-07-15T09:01:06.788Z,1.20
2018-07-15T09:02:06.760Z,1.30
2018-07-15T09:03:06.749Z,1.10
2018-07-15T09:04:06.742Z,1.60
2018-07-15T09:05:06.728Z,1.60
2018-07-15T09:06:06.714Z,1.60
2018-07-15T09:07:06.708Z,1.20
2018-07-15T09:08:06.696Z,1.40
2018-07-15T09:09:06.685Z,1.30
2018-07-15T09:10:06.660Z,1.10
2018-07-15T09:11:06.669Z,0.90
2018-07-15T09:12:06.637Z,0.90
2018-07-15T09:13:06.627Z,1.00
2018-07-15T09:14:06.615Z,1.10
2018-07-15T09:15:06.604Z,1.10
2018-07-15T09:16:06.590Z,1.10
2018-07-15T09:17:06.579Z,1.10
2018-07-15T09:18:06.566Z,1.00
2018-07-15T09:19:06.563Z,1.20
2018-07-15T09:20:06.550Z,1.00
2018-07-15T09:21:06.534Z,1.20
2018-07-15T09:22:06.609Z,1.00
2018-07-15T09:23:06.507Z,1.20
2018-07-15T09:24:06.494Z,0.90
2018-07-15T09:25:06.537Z,0.80
2018-07-15T09:26:06.471Z,1.10
2018-07-15T09:27:06.467Z,1.00
2018-07-15T09:28:06.452Z,0.80
2018-07-15T09:29:06.437Z,0.90
2018-07-15T09:30:06.425Z,0.90
2018-07-15T09:31:06.413Z,1.10
2018-07-15T09:32:06.401Z,1.10
2018-07-15T09:33:06.395Z,1.00
2018-07-15T09:34:06.386Z,1.00
2018-07-15T09:35:06.366Z,1.20
2018-07-15T09:36:06.360Z,0.90
2018-07-15T09:37:06.360Z,1.00
2018-07-15T09:38:06.363Z,1.10
2018-07-15T09:39:06.318Z,0.80
2018-07-15T09:40:06.309Z,0.90
2018-07-15T09:41:06.345Z,1.00
2018-07-15T09:42:06.287Z,1.10
2018-07-15T09:43:06.274Z,0.60
2018-07-15T09:44:06.262Z,1.00
2018-07-15T09:45:06.249Z,0.90
2018-07-15T09:46:06.242Z,1.00
2018-07-15T09:47:06.233Z,1.00
2018-07-15T09:48:06.216Z,1.10
2018-07-15T09:49:06.221Z,1.00
2018-07-15T09:50:06.199Z,1.00
2018-07-15T09:51:06.199Z,1.10
2018-07-15T09:52:06.177Z,1.10
2018-07-15T09:53:06.168Z,0.70
2018-07-15T09:54:06.156Z,0.90
2018-07-15T09:55:06.139Z,0.70
2018-07-15T09:56:06.132Z,0.70
2018-07-15T09:57:06.115Z,0.90
2018-07-15T09:58:06.114Z,1.00
2018-07-15T09:59:06.098Z,0.80
2018-07-15T10:00:06.086Z,0.70
2018-07-15T10:01:06.069Z,0.90
2018-07-15T10:02:06.165Z,0.80
2018-07-15T10:03:06.061Z,0.70
2018-07-15T10:04:06.082Z,0.70
2018-07-15T10:05:06.036Z,0.70
2018-07-15T10:06:06.022Z,0.80
2018-07-15T10:07:06.012Z,0.70
2018-07-15T10:08:05.996Z,0.80
2018-07-15T10:09:05.986Z,0.60
2018-07-15T10:10:05.978Z,0.80
2018-07-15T10:11:05.967Z,0.50
2018-07-15T10:12:05.961Z,0.70
2018-07-15T10:13:05.938Z,0.80
2018-07-15T10:14:05.933Z,0.60
2018-07-15T10:15:05.920Z,0.70
2018-07-15T10:16:05.911Z,0.80
2018-07-15T10:17:05.899Z,0.70
2018-07-15T10:18:05.987Z,0.90
2018-07-15T10:19:06.001Z,0.70
2018-07-15T10:20:05.865Z,0.60
2018-07-15T10:21:05.848Z,0.80
2018-07-15T10:22:05.847Z,0.60
2018-07-15T10:23:05.827Z,0.70
2018-07-15T10:24:05.816Z,0.60
2018-07-15T10:25:05.806Z,0.70
2018-07-15T10:26:05.804Z,0.60
2018-07-15T10:27:05.792Z,0.70
2018-07-15T10:28:05.779Z,0.60
2018-07-15T10:29:05.775Z,0.60
2018-07-15T10:30:05.749Z,0.70
2018-07-15T10:31:05.799Z,0.70
2018-07-15T10:32:05.736Z,0.80
2018-07-15T10:33:05.774Z,0.70
2018-07-15T10:34:05.706Z,0.60
2018-07-15T10:35:05.706Z,0.60
2018-07-15T10:36:05.699Z,0.70
2018-07-15T10:37:05.678Z,0.70
2018-07-15T10:38:05.666Z,0.70
2018-07-15T10:39:05.670Z,0.90
2018-07-15T10:40:05.642Z,0.80
2018-07-15T10:41:05.638Z,0.80
2018-07-15T10:42:05.623Z,0.70
2018-07-15T10:43:05.612Z,0.70
2018-07-15T10:44:05.600Z,1.00
2018-07-15T10:45:05.586Z,0.60
2018-07-15T10:46:05.578Z,0.70
2018-07-15T10:47:05.564Z,0.70
2018-07-15T10:48:05.563Z,0.80
2018-07-15T10:49:05.563Z,0.60
2018-07-15T10:50:05.532Z,0.80
2018-07-15T10:51:05.533Z,0.80
2018-07-15T10:52:05.579Z,0.60
2018-07-15T10:53:05.503Z,0.60
2018-07-15T10:54:05.493Z,0.60
2018-07-15T10:55:05.483Z,0.70
2018-07-15T10:56:05.468Z,0.60
2018-07-15T10:57:05.457Z,0.50
2018-07-15T10:58:05.452Z,0.70
2018-07-15T10:59:05.444Z,0.60
2018-07-15T11:00:05.428Z,0.80
2018-07-15T11:01:05.451Z,0.80
2018-07-15T11:02:05.410Z,0.60
2018-07-15T11:03:05.398Z,0.70
2018-07-15T11:04:05.391Z,0.70
2018-07-15T11:05:05.376Z,0.60
2018-07-15T11:06:05.375Z,0.60
2018-07-15T11:07:05.350Z,0.70
2018-07-15T11:08:05.348Z,0.70
2018-07-15T11:09:05.337Z,0.70
2018-07-15T11:10:05.330Z,1.00
2018-07-15T11:11:05.379Z,0.70
2018-07-15T11:12:05.295Z,0.60
2018-07-15T11:13:05.289Z,0.70
2018-07-15T11:14:05.298Z,0.70
2018-07-15T11:15:05.263Z,0.60
2018-07-15T11:16:05.257Z,0.70
2018-07-15T11:17:05.245Z,0.60
2018-07-15T11:18:05.236Z,0.70
2018-07-15T11:19:05.224Z,0.80
2018-07-15T11:20:05.212Z,0.80
2018-07-15T11:21:05.202Z,0.70
2018-07-15T11:22:05.189Z,1.00
2018-07-15T11:23:05.180Z,0.80
2018-07-15T11:24:05.251Z,0.60
2018-07-15T11:25:05.164Z,0.70
2018-07-15T11:26:05.170Z,0.70
2018-07-15T11:27:05.139Z,1.00
2018-07-15T11:28:05.124Z,0.80
2018-07-15T11:29:05.119Z,0.60
2018-07-15T11:30:05.109Z,0.70
2018-07-15T11:31:05.351Z,0.70
2018-07-15T11:32:05.081Z,0.80
2018-07-15T11:33:05.073Z,0.70
2018-07-15T11:34:05.067Z,0.70
2018-07-15T11:35:05.051Z,0.80
2018-07-15T11:36:05.041Z,0.70
2018-07-15T11:37:05.032Z,0.70
2018-07-15T11:38:05.021Z,0.70
2018-07-15T11:39:05.054Z,0.60
2018-07-15T11:40:04.998Z,0.70
2018-07-15T11:41:04.986Z,0.80
2018-07-15T11:42:04.983Z,0.70
2018-07-15T11:43:04.971Z,0.70
2018-07-15T11:44:04.966Z,0.90
2018-07-15T11:45:04.946Z,0.60
2018-07-15T11:46:04.938Z,1.00
2018-07-15T11:47:04.925Z,0.80
2018-07-15T11:48:05.060Z,0.80
2018-07-15T11:49:04.908Z,0.80
2018-07-15T11:50:04.900Z,0.80
2018-07-15T11:51:04.990Z,0.70
2018-07-15T11:52:04.885Z,0.80
2018-07-15T11:53:04.869Z,0.70
2018-07-15T11:54:04.866Z,0.70
2018-07-15T11:55:04.847Z,0.60
2018-07-15T11:56:04.837Z,0.70
2018-07-15T11:57:04.831Z,0.60
2018-07-15T11:58:04.817Z,0.70
2018-07-15T11:59:04.809Z,0.60
2018-07-15T12:00:04.798Z,0.60
2018-07-15T12:01:04.782Z,0.80
2018-07-15T12:02:04.776Z,0.80
2018-07-15T12:03:04.765Z,0.70
2018-07-15T12:04:04.814Z,0.70
2018-07-15T12:05:04.747Z,0.70
2018-07-15T12:06:04.735Z,0.70
2018-07-15T12:07:04.782Z,0.60
2018-07-15T12:08:04.720Z,0.80
2018-07-15T12:09:04.719Z,0.70
2018-07-15T12:10:04.705Z,0.80
2018-07-15T12:11:04.701Z,0.60
2018-07-15T12:12:04.679Z,0.80
2018-07-15T12:13:04.664Z,0.70
2018-07-15T12:14:04.660Z,0.60
2018-07-15T12:15:04.657Z,0.80
2018-07-15T12:16:04.658Z,0.90
2018-07-15T12:17:04.635Z,0.90
2018-07-15T12:18:04.614Z,0.70
2018-07-15T12:19:04.607Z,0.70
2018-07-15T12:20:04.720Z,0.70
2018-07-15T12:21:04.583Z,0.70
2018-07-15T12:22:04.573Z,0.70
2018-07-15T12:23:04.568Z,0.80
2018-07-15T12:24:04.562Z,0.70
2018-07-15T12:25:04.548Z,0.70
2018-07-15T12:26:04.536Z,1.00
2018-07-15T12:27:04.525Z,0.60
2018-07-15T12:28:04.670Z,0.80
2018-07-15T12:29:04.504Z,0.70
2018-07-15T12:30:04.490Z,0.80
2018-07-15T12:31:04.565Z,0.70
2018-07-15T12:32:04.468Z,0.70
2018-07-15T12:33:04.467Z,0.70
2018-07-15T12:34:04.451Z,0.70
2018-07-15T12:35:04.443Z,0.80
2018-07-15T12:36:04.442Z,2.00
2018-07-15T12:37:04.419Z,1.00
2018-07-15T12:38:04.411Z,0.70
2018-07-15T12:39:04.403Z,0.90
2018-07-15T12:40:04.398Z,0.70
2018-07-15T12:41:04.381Z,0.70
2018-07-15T12:42:04.373Z,0.70
2018-07-15T12:43:04.369Z,0.70
2018-07-15T12:44:04.418Z,0.70
2018-07-15T12:45:04.345Z,0.60
2018-07-15T12:46:04.343Z,0.70
2018-07-15T12:47:04.323Z,0.70
2018-07-15T12:48:04.317Z,0.60
2018-07-15T12:49:04.307Z,0.50
2018-07-15T12:50:04.295Z,0.60
2018-07-15T12:51:04.295Z,0.70
2018-07-15T12:52:04.357Z,0.80
2018-07-15T12:53:04.263Z,0.80
2018-07-15T12:54:04.260Z,0.80
2018-07-15T12:55:04.252Z,0.60
2018-07-15T12:56:04.247Z,0.80
2018-07-15T12:57:04.228Z,0.60
2018-07-15T12:58:04.215Z,0.90
2018-07-15T12:59:04.205Z,0.90
2018-07-15T13:00:04.343Z,0.60
2018-07-15T13:01:04.205Z,0.70
2018-07-15T13:02:04.179Z,0.60
2018-07-15T13:03:04.160Z,0.70
2018-07-15T13:04:04.178Z,0.70
2018-07-15T13:05:04.149Z,0.60
2018-07-15T13:06:04.133Z,0.80
2018-07-15T13:07:04.165Z,0.50
2018-07-15T13:08:04.117Z,0.70
2018-07-15T13:09:04.108Z,0.60
2018-07-15T13:10:04.100Z,0.70
2018-07-15T13:11:04.080Z,0.60
2018-07-15T13:12:04.078Z,0.60
2018-07-15T13:13:04.056Z,0.60
2018-07-15T13:14:04.050Z,0.80
2018-07-15T13:15:04.051Z,0.70
2018-07-15T13:16:04.046Z,0.70
2018-07-15T13:17:04.030Z,0.70
2018-07-15T13:18:04.022Z,0.70